createdAt,value
2022-09-17T00:00:11.541Z,89.00
2022-09-17T00:01:11.526Z,88.90
2022-09-17T00:02:11.557Z,89.11
2022-09-17T00:03:11.665Z,88.49
2022-09-17T00:04:11.499Z,88.90
2022-09-17T00:05:11.486Z,89.41
2022-09-17T00:06:11.467Z,88.49
2022-09-17T00:07:11.463Z,89.11
2022-09-17T00:08:11.495Z,89.51
2022-09-17T00:09:11.440Z,89.26
2022-09-17T00:10:11.423Z,89.58
2022-09-17T00:11:11.422Z,88.90
2022-09-17T00:12:11.401Z,89.51
2022-09-17T00:13:11.397Z,88.96
2022-09-17T00:14:11.395Z,89.26
2022-09-17T00:15:11.374Z,88.85
2022-09-17T00:16:11.430Z,89.11
2022-09-17T00:17:11.351Z,89.58
2022-09-17T00:18:11.338Z,88.79
2022-09-17T00:19:11.458Z,88.65
2022-09-17T00:20:11.321Z,89.17
2022-09-17T00:21:11.307Z,89.37
2022-09-17T00:22:11.292Z,88.96
2022-09-17T00:23:11.275Z,89.06
2022-09-17T00:24:11.290Z,89.17
2022-09-17T00:25:11.268Z,89.26
2022-09-17T00:26:11.241Z,89.47
2022-09-17T00:27:11.239Z,89.17
2022-09-17T00:28:11.226Z,89.47
2022-09-17T00:29:11.211Z,89.47
2022-09-17T00:30:11.211Z,89.26
2022-09-17T00:31:11.270Z,88.85
2022-09-17T00:32:11.182Z,89.47
2022-09-17T00:33:11.167Z,89.67
2022-09-17T00:34:11.153Z,89.06
2022-09-17T00:35:11.282Z,89.06
2022-09-17T00:36:11.137Z,89.06
2022-09-17T00:37:11.138Z,88.96
2022-09-17T00:38:11.115Z,89.26
2022-09-17T00:39:11.099Z,89.37
2022-09-17T00:40:11.205Z,89.67
2022-09-17T00:41:11.082Z,89.26
2022-09-17T00:42:11.072Z,89.37
2022-09-17T00:43:11.060Z,89.67
2022-09-17T00:44:11.055Z,89.47
2022-09-17T00:45:11.029Z,89.37
2022-09-17T00:46:11.094Z,89.67
2022-09-17T00:47:11.007Z,89.26
2022-09-17T00:48:10.996Z,90.19
2022-09-17T00:49:10.992Z,89.06
2022-09-17T00:50:10.986Z,89.47
2022-09-17T00:51:11.111Z,89.17
2022-09-17T00:52:10.960Z,89.47
2022-09-17T00:53:10.947Z,89.88
2022-09-17T00:54:10.937Z,89.26
2022-09-17T00:55:10.942Z,89.67
2022-09-17T00:56:10.912Z,89.67
2022-09-17T00:57:10.947Z,90.08
2022-09-17T00:58:10.888Z,89.26
2022-09-17T00:59:10.880Z,89.26
2022-09-17T01:00:10.859Z,89.58
2022-09-17T01:01:10.933Z,88.96
2022-09-17T01:02:10.929Z,89.98
2022-09-17T01:03:10.844Z,89.98
2022-09-17T01:04:10.823Z,89.26
2022-09-17T01:05:10.814Z,89.88
2022-09-17T01:06:10.801Z,89.37
2022-09-17T01:07:10.911Z,89.06
2022-09-17T01:08:10.786Z,89.67
2022-09-17T01:09:10.767Z,89.47
2022-09-17T01:10:10.749Z,89.58
2022-09-17T01:11:10.747Z,89.78
2022-09-17T01:12:10.730Z,89.26
2022-09-17T01:13:10.734Z,89.17
2022-09-17T01:14:10.715Z,89.78
2022-09-17T01:15:10.701Z,89.47
2022-09-17T01:16:10.793Z,89.17
2022-09-17T01:17:10.670Z,89.67
2022-09-17T01:18:10.658Z,89.26
2022-09-17T01:19:10.671Z,89.26
2022-09-17T01:20:10.639Z,89.58
2022-09-17T01:21:10.634Z,89.26
2022-09-17T01:22:10.618Z,89.58
2022-09-17T01:23:10.727Z,89.17
2022-09-17T01:24:10.606Z,89.37
2022-09-17T01:25:10.599Z,89.37
2022-09-17T01:26:10.580Z,89.78
2022-09-17T01:27:10.566Z,89.37
2022-09-17T01:28:10.546Z,90.25
2022-09-17T01:29:10.562Z,90.14
2022-09-17T01:30:10.522Z,89.67
2022-09-17T01:31:10.560Z,89.58
2022-09-17T01:32:10.501Z,89.58
2022-09-17T01:33:10.498Z,89.67
2022-09-17T01:34:10.479Z,89.37
2022-09-17T01:35:10.485Z,89.06
2022-09-17T01:36:10.455Z,89.58
2022-09-17T01:37:10.458Z,89.32
2022-09-17T01:38:10.437Z,89.17
2022-09-17T01:39:10.539Z,89.37
2022-09-17T01:40:10.477Z,89.26
2022-09-17T01:41:10.401Z,89.43
2022-09-17T01:42:10.408Z,89.58
2022-09-17T01:43:10.394Z,89.43
2022-09-17T01:44:10.374Z,89.17
2022-09-17T01:45:10.378Z,89.26
2022-09-17T01:46:10.405Z,89.17
2022-09-17T01:47:10.335Z,90.59
2022-09-17T01:48:10.325Z,89.26
2022-09-17T01:49:10.310Z,89.26
2022-09-17T01:50:10.319Z,89.12
2022-09-17T01:51:10.287Z,89.84
2022-09-17T01:52:10.285Z,89.63
2022-09-17T01:53:10.272Z,89.32
2022-09-17T01:54:10.254Z,89.47
2022-09-17T01:55:10.378Z,89.67
2022-09-17T01:56:10.244Z,89.84
2022-09-17T01:57:10.232Z,89.58
2022-09-17T01:58:10.226Z,89.58
2022-09-17T01:59:10.199Z,89.58
2022-09-17T02:00:10.210Z,89.37
2022-09-17T02:01:10.264Z,89.32
2022-09-17T02:02:10.235Z,89.26
2022-09-17T02:03:10.160Z,89.47
2022-09-17T02:04:10.148Z,89.58
2022-09-17T02:05:10.144Z,89.26
2022-09-17T02:06:10.123Z,89.47
2022-09-17T02:07:10.165Z,89.67
2022-09-17T02:08:10.106Z,89.88
2022-09-17T02:09:13.727Z,89.67
2022-09-17T02:10:11.092Z,89.06
2022-09-17T02:11:10.178Z,89.26
2022-09-17T02:12:10.059Z,89.88
2022-09-17T02:13:10.048Z,89.67
2022-09-17T02:14:10.038Z,89.88
2022-09-17T02:15:10.043Z,90.49
2022-09-17T02:16:10.067Z,90.29
2022-09-17T02:17:09.998Z,89.88
2022-09-17T02:18:09.982Z,90.29
2022-09-17T02:19:09.982Z,90.08
2022-09-17T02:20:09.976Z,90.49
2022-09-17T02:21:09.953Z,89.88
2022-09-17T02:22:09.939Z,90.49
2022-09-17T02:23:09.930Z,89.88
2022-09-17T02:24:09.929Z,90.49
2022-09-17T02:25:09.947Z,90.19
2022-09-17T02:26:09.898Z,89.78
2022-09-17T02:27:10.036Z,90.49
2022-09-17T02:28:09.873Z,90.64
2022-09-17T02:29:09.868Z,90.39
2022-09-17T02:30:09.886Z,90.49
2022-09-17T02:31:09.894Z,90.19
2022-09-17T02:32:09.840Z,90.29
2022-09-17T02:33:09.818Z,90.74
2022-09-17T02:34:09.814Z,90.23
2022-09-17T02:35:09.809Z,90.84
2022-09-17T02:36:09.793Z,90.94
2022-09-17T02:37:09.779Z,90.94
2022-09-17T02:38:09.768Z,90.74
2022-09-17T02:39:09.756Z,90.80
2022-09-17T02:40:09.875Z,90.94
2022-09-17T02:41:09.734Z,91.56
2022-09-17T02:42:09.718Z,91.35
2022-09-17T02:43:09.828Z,91.15
2022-09-17T02:44:09.699Z,91.35
2022-09-17T02:45:09.701Z,91.25
2022-09-17T02:46:11.258Z,91.46
2022-09-17T02:47:09.661Z,91.25
2022-09-17T02:48:09.657Z,91.25
2022-09-17T02:49:09.643Z,91.15
2022-09-17T02:50:09.635Z,91.66
2022-09-17T02:51:09.634Z,91.25
2022-09-17T02:52:09.610Z,91.25
2022-09-17T02:53:09.598Z,90.80
2022-09-17T02:54:09.592Z,91.20
2022-09-17T02:55:09.568Z,90.90
2022-09-17T02:56:09.600Z,91.52
2022-09-17T02:57:09.549Z,91.20
2022-09-17T02:58:09.543Z,91.00
2022-09-17T02:59:09.646Z,91.41
2022-09-17T03:00:09.516Z,91.41
2022-09-17T03:01:09.609Z,91.00
2022-09-17T03:02:09.575Z,91.72
2022-09-17T03:03:09.480Z,91.31
2022-09-17T03:04:09.468Z,91.41
2022-09-17T03:05:09.463Z,91.31
2022-09-17T03:06:09.468Z,91.20
2022-09-17T03:07:09.436Z,91.31
2022-09-17T03:08:09.439Z,91.00
2022-09-17T03:09:09.417Z,91.11
2022-09-17T03:10:09.409Z,91.52
2022-09-17T03:11:09.412Z,91.31
2022-09-17T03:12:09.380Z,92.02
2022-09-17T03:13:09.369Z,92.23
2022-09-17T03:14:09.363Z,91.82
2022-09-17T03:15:09.461Z,92.13
2022-09-17T03:16:09.440Z,91.82
2022-09-17T03:17:09.327Z,92.23
2022-09-17T03:18:09.317Z,92.23
2022-09-17T03:19:09.297Z,92.13
2022-09-17T03:20:09.294Z,92.02
2022-09-17T03:21:09.291Z,92.02
2022-09-17T03:22:09.272Z,91.92
2022-09-17T03:23:09.256Z,92.02
2022-09-17T03:24:09.251Z,92.23
2022-09-17T03:25:09.237Z,92.13
2022-09-17T03:26:09.245Z,92.13
2022-09-17T03:27:09.216Z,92.23
2022-09-17T03:28:09.202Z,92.33
2022-09-17T03:29:09.193Z,92.13
2022-09-17T03:30:09.175Z,92.02
2022-09-17T03:31:09.371Z,92.23
2022-09-17T03:32:09.154Z,92.23
2022-09-17T03:33:09.139Z,91.41
2022-09-17T03:34:09.134Z,91.52
2022-09-17T03:35:09.117Z,91.41
2022-09-17T03:36:09.128Z,91.52
2022-09-17T03:37:09.097Z,91.20
2022-09-17T03:38:09.112Z,91.61
2022-09-17T03:39:09.077Z,91.00
2022-09-17T03:40:09.106Z,91.00
2022-09-17T03:41:09.069Z,91.41
2022-09-17T03:42:09.048Z,91.20
2022-09-17T03:43:09.035Z,91.11
2022-09-17T03:44:09.019Z,90.49
2022-09-17T03:45:09.012Z,90.59
2022-09-17T03:46:09.069Z,90.59
2022-09-17T03:47:09.106Z,90.19
2022-09-17T03:48:08.972Z,90.70
2022-09-17T03:49:08.968Z,91.52
2022-09-17T03:50:08.950Z,91.31
2022-09-17T03:51:08.956Z,91.11
2022-09-17T03:52:08.927Z,91.20
2022-09-17T03:53:08.915Z,90.80
2022-09-17T03:54:08.914Z,90.59
2022-09-17T03:55:08.893Z,90.59
2022-09-17T03:56:08.902Z,90.59
2022-09-17T03:57:08.877Z,90.45
2022-09-17T03:58:08.871Z,90.66
2022-09-17T03:59:08.882Z,90.49
2022-09-17T04:00:08.838Z,90.90
2022-09-17T04:01:08.850Z,90.59
2022-09-17T04:02:08.997Z,90.49
2022-09-17T04:03:08.919Z,90.66
2022-09-17T04:04:08.801Z,91.31
2022-09-17T04:05:08.782Z,90.59
2022-09-17T04:06:08.791Z,90.70
2022-09-17T04:07:08.785Z,91.47
2022-09-17T04:08:08.768Z,91.20
2022-09-17T04:09:08.743Z,90.66
2022-09-17T04:10:08.739Z,90.29
2022-09-17T04:11:08.737Z,90.39
2022-09-17T04:12:08.703Z,90.66
2022-09-17T04:13:08.697Z,90.90
2022-09-17T04:14:08.679Z,90.70
2022-09-17T04:15:08.668Z,90.59
2022-09-17T04:16:08.732Z,90.70
2022-09-17T04:17:08.665Z,90.59
2022-09-17T04:18:08.635Z,90.70
2022-09-17T04:19:08.750Z,90.55
2022-09-17T04:20:08.616Z,91.31
2022-09-17T04:21:08.607Z,90.75
2022-09-17T04:22:08.610Z,91.41
2022-09-17T04:23:08.577Z,91.06
2022-09-17T04:24:08.580Z,91.31
2022-09-17T04:25:08.562Z,91.11
2022-09-17T04:26:08.558Z,91.31
2022-09-17T04:27:08.550Z,91.20
2022-09-17T04:28:08.522Z,91.11
2022-09-17T04:29:08.510Z,91.37
2022-09-17T04:30:08.500Z,91.31
2022-09-17T04:31:08.558Z,91.20
2022-09-17T04:32:08.484Z,91.31
2022-09-17T04:33:08.478Z,91.41
2022-09-17T04:34:08.462Z,91.47
2022-09-17T04:35:08.574Z,91.31
2022-09-17T04:36:08.432Z,91.20
2022-09-17T04:37:08.428Z,91.20
2022-09-17T04:38:08.421Z,91.11
2022-09-17T04:39:08.399Z,90.90
2022-09-17T04:40:08.513Z,91.11
2022-09-17T04:41:08.381Z,91.11
2022-09-17T04:42:08.368Z,91.00
2022-09-17T04:43:08.372Z,91.52
2022-09-17T04:44:08.342Z,91.31
2022-09-17T04:45:08.331Z,92.23
2022-09-17T04:46:08.418Z,92.23
2022-09-17T04:47:08.330Z,92.33
2022-09-17T04:48:08.317Z,91.41
2022-09-17T04:49:08.306Z,91.82
2022-09-17T04:50:08.280Z,91.72
2022-09-17T04:51:08.403Z,91.72
2022-09-17T04:52:08.297Z,92.23
2022-09-17T04:53:08.253Z,91.52
2022-09-17T04:54:08.249Z,91.92
2022-09-17T04:55:08.229Z,92.13
2022-09-17T04:56:08.252Z,92.23
2022-09-17T04:57:08.212Z,92.02
2022-09-17T04:58:08.209Z,91.82
2022-09-17T04:59:08.187Z,92.07
2022-09-17T05:00:08.177Z,92.23
2022-09-17T05:01:08.211Z,92.13
2022-09-17T05:02:08.208Z,92.33
2022-09-17T05:03:08.148Z,92.07
2022-09-17T05:04:08.117Z,92.02
2022-09-17T05:05:08.106Z,92.02
2022-09-17T05:06:08.103Z,92.02
2022-09-17T05:07:11.997Z,92.23
2022-09-17T05:08:09.098Z,92.23
2022-09-17T05:09:08.058Z,92.23
2022-09-17T05:10:08.059Z,92.07
2022-09-17T05:11:08.039Z,91.52
2022-09-17T05:12:08.027Z,91.56
2022-09-17T05:13:08.021Z,91.11
2022-09-17T05:14:08.018Z,91.52
2022-09-17T05:15:08.001Z,91.76
2022-09-17T05:16:08.092Z,92.27
2022-09-17T05:17:07.971Z,92.17
2022-09-17T05:18:07.969Z,92.13
2022-09-17T05:19:07.960Z,92.33
2022-09-17T05:20:07.948Z,92.27
2022-09-17T05:21:07.931Z,92.02
2022-09-17T05:22:07.917Z,92.02
2022-09-17T05:23:08.028Z,92.07
2022-09-17T05:24:07.907Z,92.13
2022-09-17T05:25:07.887Z,91.92
2022-09-17T05:26:07.879Z,91.96
2022-09-17T05:27:07.866Z,92.27
2022-09-17T05:28:07.845Z,92.13
2022-09-17T05:29:07.849Z,91.82
2022-09-17T05:30:07.832Z,91.92
2022-09-17T05:31:07.877Z,92.27
2022-09-17T05:32:07.811Z,91.61
2022-09-17T05:33:07.798Z,91.82
2022-09-17T05:34:07.810Z,92.37
2022-09-17T05:35:07.775Z,92.07
2022-09-17T05:36:07.758Z,92.17
2022-09-17T05:37:07.745Z,91.11
2022-09-17T05:38:07.777Z,91.35
2022-09-17T05:39:07.861Z,91.31
2022-09-17T05:40:07.763Z,91.61
2022-09-17T05:41:07.707Z,91.41
2022-09-17T05:42:07.708Z,91.11
2022-09-17T05:43:07.677Z,91.31
2022-09-17T05:44:07.683Z,91.46
2022-09-17T05:45:07.656Z,91.35
2022-09-17T05:46:07.701Z,91.31
2022-09-17T05:47:07.635Z,91.61
2022-09-17T05:48:07.628Z,91.46
2022-09-17T05:49:07.626Z,91.25
2022-09-17T05:50:07.613Z,91.31
2022-09-17T05:51:07.594Z,91.35
2022-09-17T05:52:07.579Z,91.56
2022-09-17T05:53:07.570Z,91.25
2022-09-17T05:54:07.594Z,91.31
2022-09-17T05:55:07.665Z,91.20
2022-09-17T05:56:07.540Z,91.41
2022-09-17T05:57:07.519Z,91.11
2022-09-17T05:58:07.518Z,91.11
2022-09-17T05:59:07.503Z,91.31
2022-09-17T06:00:07.510Z,91.20
2022-09-17T06:01:07.482Z,91.20
2022-09-17T06:02:07.516Z,91.41
2022-09-17T06:03:07.511Z,91.31
2022-09-17T06:04:07.449Z,91.20
2022-09-17T06:05:07.440Z,91.52
2022-09-17T06:06:07.426Z,90.70
2022-09-17T06:07:07.424Z,90.35
2022-09-17T06:08:07.411Z,90.45
2022-09-17T06:09:07.398Z,89.84
2022-09-17T06:10:07.389Z,90.14
2022-09-17T06:11:07.481Z,89.84
2022-09-17T06:12:07.356Z,89.73
2022-09-17T06:13:07.346Z,89.12
2022-09-17T06:14:07.338Z,89.49
2022-09-17T06:15:07.329Z,88.82
2022-09-17T06:16:07.352Z,89.02
2022-09-17T06:17:07.292Z,89.49
2022-09-17T06:18:07.290Z,89.28
2022-09-17T06:19:07.271Z,89.08
2022-09-17T06:20:07.274Z,89.49
2022-09-17T06:21:07.247Z,89.59
2022-09-17T06:22:07.239Z,89.34
2022-09-17T06:23:07.227Z,89.45
2022-09-17T06:24:07.216Z,89.34
2022-09-17T06:25:07.219Z,88.84
2022-09-17T06:26:07.204Z,88.53
2022-09-17T06:27:07.309Z,88.39
2022-09-17T06:28:07.195Z,88.49
2022-09-17T06:29:07.162Z,88.69
2022-09-17T06:30:07.166Z,87.88
2022-09-17T06:31:07.226Z,87.32
2022-09-17T06:32:07.126Z,87.23
2022-09-17T06:33:07.159Z,86.92
2022-09-17T06:34:07.105Z,87.29
2022-09-17T06:35:07.098Z,86.92
2022-09-17T06:36:12.520Z,86.41
2022-09-17T06:37:08.067Z,86.61
2022-09-17T06:38:07.068Z,86.37
2022-09-17T06:39:07.052Z,85.45
2022-09-17T06:40:07.100Z,84.94
2022-09-17T06:41:07.044Z,85.00
2022-09-17T06:42:07.012Z,85.41
2022-09-17T06:43:07.132Z,84.29
2022-09-17T06:44:06.997Z,84.19
2022-09-17T06:45:09.460Z,83.37
2022-09-17T06:46:07.030Z,83.58
2022-09-17T06:47:06.958Z,83.78
2022-09-17T06:48:06.946Z,83.68
2022-09-17T06:49:06.935Z,83.37
2022-09-17T06:50:06.948Z,83.58
2022-09-17T06:51:06.929Z,83.89
2022-09-17T06:52:06.905Z,83.34
2022-09-17T06:53:06.891Z,83.48
2022-09-17T06:54:06.882Z,83.13
2022-09-17T06:55:06.873Z,83.37
2022-09-17T06:56:07.165Z,82.82
2022-09-17T06:57:06.852Z,83.17
2022-09-17T06:58:06.842Z,83.17
2022-09-17T06:59:06.953Z,82.87
2022-09-17T07:00:06.812Z,83.37
2022-09-17T07:01:06.896Z,82.76
2022-09-17T07:02:06.842Z,82.76
2022-09-17T07:03:06.785Z,82.76
2022-09-17T07:04:06.776Z,82.97
2022-09-17T07:05:06.756Z,82.70
2022-09-17T07:06:06.766Z,82.76
2022-09-17T07:07:06.741Z,82.80
2022-09-17T07:08:06.724Z,82.97
2022-09-17T07:09:10.767Z,82.90
2022-09-17T07:10:06.710Z,82.90
2022-09-17T07:11:06.713Z,83.51
2022-09-17T07:12:06.683Z,83.42
2022-09-17T07:13:06.665Z,83.11
2022-09-17T07:14:06.667Z,83.21
2022-09-17T07:15:06.759Z,83.11
2022-09-17T07:16:06.719Z,83.62
2022-09-17T07:17:06.629Z,83.11
2022-09-17T07:18:06.616Z,83.11
2022-09-17T07:19:06.965Z,83.21
2022-09-17T07:20:06.588Z,83.42
2022-09-17T07:21:06.592Z,83.11
2022-09-17T07:22:06.573Z,82.97
2022-09-17T07:23:06.559Z,83.21
2022-09-17T07:24:06.544Z,82.97
2022-09-17T07:25:06.529Z,82.87
2022-09-17T07:26:06.540Z,82.35
2022-09-17T07:27:06.514Z,81.65
2022-09-17T07:28:06.496Z,81.91
2022-09-17T07:29:06.484Z,82.32
2022-09-17T07:30:06.475Z,82.42
2022-09-17T07:31:06.647Z,82.01
2022-09-17T07:32:06.462Z,81.60
2022-09-17T07:33:06.446Z,81.60
2022-09-17T07:34:06.428Z,81.37
2022-09-17T07:35:06.423Z,81.51
2022-09-17T07:36:06.436Z,81.57
2022-09-17T07:37:06.396Z,82.28
2022-09-17T07:38:06.385Z,81.87
2022-09-17T07:39:06.377Z,81.57
2022-09-17T07:40:06.433Z,81.37
2022-09-17T07:41:06.368Z,81.60
2022-09-17T07:42:06.349Z,81.98
2022-09-17T07:43:06.327Z,81.81
2022-09-17T07:44:06.325Z,81.81
2022-09-17T07:45:06.307Z,82.12
2022-09-17T07:46:06.361Z,81.57
2022-09-17T07:47:06.410Z,82.12
2022-09-17T07:48:06.272Z,81.51
2022-09-17T07:49:06.268Z,82.18
2022-09-17T07:50:06.251Z,82.21
2022-09-17T07:51:06.258Z,81.46
2022-09-17T07:52:06.290Z,81.40
2022-09-17T07:53:06.223Z,81.37
2022-09-17T07:54:06.208Z,81.37
2022-09-17T07:55:06.206Z,81.57
2022-09-17T07:56:11.083Z,81.26
2022-09-17T07:57:07.174Z,81.37
2022-09-17T07:58:06.156Z,81.57
2022-09-17T07:59:06.144Z,81.67
2022-09-17T08:00:06.134Z,80.35
2022-09-17T08:01:06.187Z,80.55
2022-09-17T08:02:06.211Z,80.72
2022-09-17T08:03:06.258Z,80.41
2022-09-17T08:04:06.103Z,80.00
2022-09-17T08:05:06.091Z,80.11
2022-09-17T08:06:06.087Z,80.07
2022-09-17T08:07:06.066Z,79.77
2022-09-17T08:08:06.057Z,79.36
2022-09-17T08:09:06.038Z,78.61
2022-09-17T08:10:06.042Z,78.81
2022-09-17T08:11:06.033Z,78.71
2022-09-17T08:12:06.014Z,78.41
2022-09-17T08:13:05.998Z,77.56
2022-09-17T08:14:05.987Z,77.25
2022-09-17T08:15:05.989Z,77.05
2022-09-17T08:16:06.074Z,77.22
2022-09-17T08:17:05.956Z,76.85
2022-09-17T08:18:05.942Z,76.91
2022-09-17T08:19:06.073Z,76.91
2022-09-17T08:20:05.919Z,76.71
2022-09-17T08:21:05.920Z,74.78
2022-09-17T08:22:05.897Z,74.74
2022-09-17T08:23:05.888Z,74.34
2022-09-17T08:24:05.877Z,74.34
2022-09-17T08:25:05.856Z,74.10
2022-09-17T08:26:05.935Z,73.70
2022-09-17T08:27:05.843Z,72.28
2022-09-17T08:28:05.829Z,73.39
2022-09-17T08:29:05.810Z,73.46
2022-09-17T08:30:05.800Z,73.16
2022-09-17T08:31:05.893Z,72.72
2022-09-17T08:32:05.777Z,72.52
2022-09-17T08:33:05.767Z,72.21
2022-09-17T08:34:05.758Z,72.38
2022-09-17T08:35:05.870Z,71.60
2022-09-17T08:36:05.742Z,71.80
2022-09-17T08:37:05.738Z,71.26
2022-09-17T08:38:05.718Z,71.40
2022-09-17T08:39:05.710Z,71.70
2022-09-17T08:40:05.783Z,71.23
2022-09-17T08:41:05.682Z,71.13
2022-09-17T08:42:05.678Z,71.84
2022-09-17T08:43:05.658Z,71.23
2022-09-17T08:44:05.655Z,70.83
2022-09-17T08:45:05.637Z,71.03
2022-09-17T08:46:05.684Z,70.72
2022-09-17T08:47:05.630Z,70.32
2022-09-17T08:48:05.599Z,70.72
2022-09-17T08:49:05.593Z,70.62
2022-09-17T08:50:05.583Z,70.69
2022-09-17T08:51:08.540Z,69.88
2022-09-17T08:52:05.572Z,70.69
2022-09-17T08:53:05.554Z,70.36
2022-09-17T08:54:05.539Z,69.65
2022-09-17T08:55:05.525Z,69.71
2022-09-17T08:56:05.516Z,69.71
2022-09-17T08:57:05.506Z,68.67
2022-09-17T08:58:05.571Z,69.07
2022-09-17T08:59:05.482Z,68.03
2022-09-17T09:00:05.465Z,68.20
2022-09-17T09:01:05.463Z,68.20
2022-09-17T09:02:05.632Z,67.53
2022-09-17T09:03:05.551Z,66.62
2022-09-17T09:04:05.430Z,65.92
2022-09-17T09:05:05.416Z,65.71
2022-09-17T09:06:10.522Z,65.28
2022-09-17T09:07:06.506Z,63.73
2022-09-17T09:08:05.395Z,63.13
2022-09-17T09:09:05.369Z,64.14
2022-09-17T09:10:05.386Z,64.41
2022-09-17T09:11:05.344Z,63.78
2022-09-17T09:12:05.331Z,63.67
2022-09-17T09:13:05.345Z,63.98
2022-09-17T09:14:05.316Z,64.11
2022-09-17T09:15:05.310Z,63.93
2022-09-17T09:16:05.354Z,64.07
2022-09-17T09:17:05.283Z,64.07
2022-09-17T09:18:05.293Z,64.30
2022-09-17T09:19:05.254Z,65.51
2022-09-17T09:20:05.242Z,65.08
2022-09-17T09:21:05.240Z,65.58
2022-09-17T09:22:05.226Z,65.05
2022-09-17T09:23:05.338Z,64.84
2022-09-17T09:24:05.200Z,64.24
2022-09-17T09:25:05.188Z,64.47
2022-09-17T09:26:05.178Z,64.75
2022-09-17T09:27:05.156Z,64.54
2022-09-17T09:28:05.170Z,64.11
2022-09-17T09:29:05.134Z,63.50
2022-09-17T09:30:05.130Z,64.11
2022-09-17T09:31:05.187Z,63.93
2022-09-17T09:32:15.289Z,64.54
2022-09-17T09:33:06.110Z,64.67
2022-09-17T09:34:05.086Z,65.78
2022-09-17T09:35:05.077Z,65.85
2022-09-17T09:36:05.058Z,65.05
2022-09-17T09:37:05.044Z,64.81
2022-09-17T09:38:05.045Z,63.00
2022-09-17T09:39:05.157Z,63.43
2022-09-17T09:40:05.092Z,64.01
2022-09-17T09:41:05.000Z,63.53
2022-09-17T09:42:05.005Z,63.64
2022-09-17T09:43:05.006Z,64.61
2022-09-17T09:44:05.609Z,63.79
2022-09-17T09:45:05.632Z,64.23
2022-09-17T09:46:04.955Z,64.56
2022-09-17T09:47:05.064Z,64.84
2022-09-17T09:48:04.943Z,64.59
2022-09-17T09:49:04.918Z,65.27
2022-09-17T09:50:04.896Z,64.84
2022-09-17T09:51:07.099Z,64.00
2022-09-17T09:52:04.874Z,63.46
2022-09-17T09:53:04.864Z,62.52
2022-09-17T09:54:04.873Z,60.88
2022-09-17T09:55:04.963Z,60.05
2022-09-17T09:56:04.828Z,59.92
2022-09-17T09:57:04.817Z,59.26
2022-09-17T09:58:04.806Z,59.66
2022-09-17T09:59:04.811Z,59.74
2022-09-17T10:00:04.790Z,58.22
2022-09-17T10:01:04.779Z,57.95
2022-09-17T10:02:04.871Z,57.65
2022-09-17T10:03:04.887Z,58.95
2022-09-17T10:04:04.762Z,59.53
2022-09-17T10:05:04.726Z,59.23
2022-09-17T10:06:04.716Z,58.62
2022-09-17T10:07:04.717Z,59.53
2022-09-17T10:08:04.694Z,59.76
2022-09-17T10:09:04.709Z,59.46
2022-09-17T10:10:04.673Z,58.98
2022-09-17T10:11:04.786Z,59.19
2022-09-17T10:12:04.651Z,59.31
2022-09-17T10:13:04.647Z,59.84
2022-09-17T10:14:09.253Z,59.72
2022-09-17T10:15:05.645Z,59.82
2022-09-17T10:16:04.641Z,59.28
2022-09-17T10:17:04.593Z,58.58
2022-09-17T10:18:04.583Z,59.82
2022-09-17T10:19:04.586Z,59.52
2022-09-17T10:20:04.570Z,59.22
2022-09-17T10:21:04.551Z,59.99
2022-09-17T10:22:04.550Z,59.39
2022-09-17T10:23:04.532Z,58.41
2022-09-17T10:24:04.530Z,59.22
2022-09-17T10:25:04.505Z,59.31
2022-09-17T10:26:04.495Z,59.48
2022-09-17T10:27:04.610Z,57.57
2022-09-17T10:28:04.480Z,57.65
2022-09-17T10:29:04.505Z,57.85
2022-09-17T10:30:04.452Z,57.24
2022-09-17T10:31:08.679Z,57.35
2022-09-17T10:32:04.440Z,57.95
2022-09-17T10:33:04.423Z,57.12
2022-09-17T10:34:04.430Z,56.64
2022-09-17T10:35:04.424Z,57.42
2022-09-17T10:36:04.385Z,57.02
2022-09-17T10:37:04.385Z,57.19
2022-09-17T10:38:04.371Z,56.36
2022-09-17T10:39:04.373Z,55.46
2022-09-17T10:40:04.388Z,54.72
2022-09-17T10:41:04.334Z,54.10
2022-09-17T10:42:04.318Z,53.92
2022-09-17T10:43:04.431Z,54.02
2022-09-17T10:44:04.301Z,54.93
2022-09-17T10:45:04.306Z,54.22
2022-09-17T10:46:04.373Z,54.15
2022-09-17T10:47:04.407Z,53.45
2022-09-17T10:48:04.248Z,54.05
2022-09-17T10:49:04.237Z,54.78
2022-09-17T10:50:04.256Z,53.77
2022-09-17T10:51:04.224Z,53.50
2022-09-17T10:52:04.205Z,54.50
2022-09-17T10:53:04.191Z,55.21
2022-09-17T10:54:04.193Z,55.83
2022-09-17T10:55:04.202Z,56.14
2022-09-17T10:56:04.161Z,56.24
2022-09-17T10:57:04.153Z,55.51
2022-09-17T10:58:04.154Z,55.91
2022-09-17T10:59:04.239Z,55.88
2022-09-17T11:00:04.133Z,56.06
2022-09-17T11:01:04.112Z,55.96
2022-09-17T11:02:04.221Z,55.86
2022-09-17T11:03:04.123Z,56.16
2022-09-17T11:04:04.075Z,56.03
2022-09-17T11:05:04.079Z,55.10
2022-09-17T11:06:04.046Z,54.97
2022-09-17T11:07:04.045Z,54.05
2022-09-17T11:08:04.023Z,54.27
2022-09-17T11:09:04.022Z,54.30
2022-09-17T11:10:04.024Z,54.90
2022-09-17T11:11:03.998Z,55.93
2022-09-17T11:12:03.988Z,57.26
2022-09-17T11:13:03.974Z,57.46
2022-09-17T11:14:03.964Z,57.46
2022-09-17T11:15:04.085Z,57.57
2022-09-17T11:16:03.995Z,58.17
2022-09-17T11:17:03.945Z,57.74
2022-09-17T11:18:03.919Z,57.21
2022-09-17T11:19:03.913Z,57.08
2022-09-17T11:20:03.914Z,56.78
2022-09-17T11:21:03.879Z,55.75
2022-09-17T11:22:03.874Z,55.63
2022-09-17T11:23:03.859Z,54.82
2022-09-17T11:24:03.935Z,54.32
2022-09-17T11:25:03.865Z,54.20
2022-09-17T11:26:03.824Z,55.00
2022-09-17T11:27:03.821Z,53.09
2022-09-17T11:28:03.801Z,53.22
2022-09-17T11:29:03.803Z,54.12
2022-09-17T11:30:03.794Z,53.95
2022-09-17T11:31:03.924Z,54.45
2022-09-17T11:32:03.759Z,53.87
2022-09-17T11:33:03.747Z,54.40
2022-09-17T11:34:03.743Z,54.80
2022-09-17T11:35:03.758Z,55.51
2022-09-17T11:36:03.717Z,55.71
2022-09-17T11:37:03.708Z,55.47
2022-09-17T11:38:03.693Z,54.88
2022-09-17T11:39:03.683Z,54.27
2022-09-17T11:40:03.755Z,53.77
2022-09-17T11:41:03.675Z,53.50
2022-09-17T11:42:03.649Z,54.30
2022-09-17T11:43:03.651Z,55.18
2022-09-17T11:44:03.636Z,55.05
2022-09-17T11:45:03.632Z,53.92
2022-09-17T11:46:03.609Z,52.92
2022-09-17T11:47:03.740Z,52.24
2022-09-17T11:48:03.590Z,53.27
2022-09-17T11:49:03.574Z,53.30
2022-09-17T11:50:03.573Z,54.22
2022-09-17T11:51:03.559Z,54.96
2022-09-17T11:52:03.541Z,55.31
2022-09-17T11:53:03.550Z,55.87
2022-09-17T11:54:03.518Z,57.63
2022-09-17T11:55:03.544Z,59.50
2022-09-17T11:56:03.501Z,61.37
2022-09-17T11:57:07.639Z,63.02
2022-09-17T11:58:04.486Z,63.76
2022-09-17T11:59:03.472Z,64.62
2022-09-17T12:00:03.467Z,66.14
2022-09-17T12:01:03.441Z,67.79
2022-09-17T12:02:03.523Z,68.33
2022-09-17T12:03:03.623Z,68.33
2022-09-17T12:04:03.417Z,68.63
2022-09-17T12:05:03.416Z,68.33
2022-09-17T12:06:03.392Z,68.60
2022-09-17T12:07:03.381Z,69.01
2022-09-17T12:08:03.369Z,70.49
2022-09-17T12:09:03.351Z,69.75
2022-09-17T12:10:03.362Z,69.92
2022-09-17T12:11:03.355Z,69.51
2022-09-17T12:12:04.017Z,69.48
2022-09-17T12:13:03.310Z,68.24
2022-09-17T12:14:03.295Z,66.79
2022-09-17T12:15:03.295Z,68.10
2022-09-17T12:16:03.312Z,69.25
2022-09-17T12:17:03.265Z,69.59
2022-09-17T12:18:27.873Z,69.05
2022-09-17T12:19:04.361Z,66.60
2022-09-17T12:20:03.242Z,64.46
2022-09-17T12:21:03.235Z,63.56
2022-09-17T12:22:03.206Z,62.62
2022-09-17T12:23:03.225Z,61.29
2022-09-17T12:24:03.182Z,59.98
2022-09-17T12:25:03.187Z,58.94
2022-09-17T12:26:03.170Z,58.94
2022-09-17T12:27:03.153Z,59.62
2022-09-17T12:28:03.139Z,58.09
2022-09-17T12:29:03.135Z,57.56
2022-09-17T12:30:03.131Z,57.15
2022-09-17T12:31:03.127Z,56.26
2022-09-17T12:32:03.092Z,55.98
2022-09-17T12:33:03.100Z,57.51
2022-09-17T12:34:03.077Z,57.74
2022-09-17T12:35:03.197Z,57.74
2022-09-17T12:36:04.962Z,58.47
2022-09-17T12:37:03.043Z,57.87
2022-09-17T12:38:03.039Z,58.09
2022-09-17T12:39:03.533Z,59.33
2022-09-17T12:40:03.084Z,59.56
2022-09-17T12:41:03.008Z,60.89
2022-09-17T12:42:02.987Z,61.73
2022-09-17T12:43:02.983Z,62.13
2022-09-17T12:44:02.965Z,61.46
2022-09-17T12:45:02.955Z,61.39
2022-09-17T12:46:02.994Z,61.39
2022-09-17T12:47:03.010Z,62.19
2022-09-17T12:48:02.914Z,62.02
2022-09-17T12:49:02.914Z,62.73
2022-09-17T12:50:02.899Z,63.36
2022-09-17T12:51:03.020Z,64.07
2022-09-17T12:52:02.879Z,64.37